createdAt,value
2023-02-03T00:02:15.512Z,0.01
2023-02-03T00:04:42.647Z,-0.15
2023-02-03T00:07:14.663Z,-0.02
2023-02-03T00:09:41.825Z,0.02
2023-02-03T00:12:09.239Z,0.01
2023-02-03T00:14:37.979Z,0.12
2023-02-03T00:17:06.230Z,0.13
2023-02-03T00:19:33.395Z,0.01
2023-02-03T00:22:01.316Z,0.00
2023-02-03T00:24:28.599Z,-0.07
2023-02-03T00:26:56.055Z,0.09
2023-02-03T00:29:25.950Z,0.21
2023-02-03T00:31:54.366Z,-0.08
2023-02-03T00:34:21.777Z,0.18
2023-02-03T00:36:49.244Z,0.19
2023-02-03T00:39:16.650Z,-0.04
2023-02-03T00:41:44.145Z,0.12
2023-02-03T00:44:11.563Z,-0.11
2023-02-03T00:46:39.681Z,0.19
2023-02-03T00:49:09.770Z,-0.02
2023-02-03T00:51:38.641Z,0.10
2023-02-03T00:54:05.883Z,-0.28
2023-02-03T00:56:33.416Z,-0.50
2023-02-03T00:59:00.707Z,-0.54
2023-02-03T01:01:28.302Z,-0.17
2023-02-03T01:03:56.592Z,-0.06
2023-02-03T01:06:24.454Z,-0.31
2023-02-03T01:08:52.158Z,-0.49
2023-02-03T01:11:22.893Z,-0.71
2023-02-03T01:13:51.679Z,-0.55
2023-02-03T01:16:22.002Z,-0.70
2023-02-03T01:18:50.625Z,-0.59
2023-02-03T01:21:21.282Z,-0.60
2023-02-03T01:23:48.679Z,-0.86
2023-02-03T01:26:19.248Z,-0.60
2023-02-03T01:29:06.232Z,-0.58
2023-02-03T01:31:37.272Z,-0.67
2023-02-03T01:34:13.394Z,-0.66
2023-02-03T01:36:40.722Z,-0.37
2023-02-03T01:39:08.570Z,-0.57
2023-02-03T01:41:38.256Z,-0.44
2023-02-03T01:44:55.232Z,-0.51
2023-02-03T01:47:36.504Z,-0.41
2023-02-03T01:50:25.393Z,-0.17
2023-02-03T01:52:59.526Z,-0.29
2023-02-03T01:55:33.400Z,-0.59
2023-02-03T01:58:14.746Z,-0.36
2023-02-03T02:01:33.510Z,-0.24
2023-02-03T02:04:03.872Z,-0.30
2023-02-03T02:06:31.637Z,-0.08
2023-02-03T02:09:00.809Z,0.24
2023-02-03T02:11:28.601Z,0.10
2023-02-03T02:13:59.075Z,0.07
2023-02-03T02:16:46.031Z,-0.19
2023-02-03T02:19:33.356Z,-0.10
2023-02-03T02:22:20.232Z,-0.06
2023-02-03T02:24:59.071Z,-0.05
2023-02-03T02:27:36.595Z,0.10
2023-02-03T02:30:36.769Z,0.28
2023-02-03T02:33:41.277Z,-0.11
2023-02-03T02:36:30.513Z,-0.13
2023-02-03T02:39:12.814Z,-0.28
2023-02-03T02:41:46.969Z,0.10
2023-02-03T02:44:30.757Z,-0.02
2023-02-03T02:47:03.252Z,-0.27
2023-02-03T02:49:30.585Z,-0.01
2023-02-03T02:52:01.962Z,-0.14
2023-02-03T02:54:32.233Z,-0.18
2023-02-03T02:57:04.704Z,0.30
2023-02-03T02:59:32.697Z,0.22
2023-02-03T03:01:59.909Z,0.22
2023-02-03T03:04:30.192Z,0.09
2023-02-03T03:07:07.464Z,0.41
2023-02-03T03:09:47.824Z,0.13
2023-02-03T03:12:22.618Z,0.42
2023-02-03T03:14:59.466Z,0.18
2023-02-03T03:17:32.258Z,0.36
2023-02-03T03:20:04.759Z,0.41
2023-02-03T03:22:38.028Z,0.28
2023-02-03T03:25:12.621Z,0.39
2023-02-03T03:27:44.723Z,-0.04
2023-02-03T03:30:18.526Z,0.11
2023-02-03T03:32:46.612Z,0.19
2023-02-03T03:35:14.136Z,-0.02
2023-02-03T03:38:00.196Z,-0.09
2023-02-03T03:40:34.921Z,0.22
2023-02-03T03:43:11.093Z,0.08
2023-02-03T03:45:45.785Z,0.28
2023-02-03T03:48:24.518Z,0.56
2023-02-03T03:51:09.295Z,0.51
2023-02-03T03:53:41.259Z,0.53
2023-02-03T03:56:15.911Z,0.57
2023-02-03T03:58:47.382Z,0.70
2023-02-03T04:01:16.828Z,0.24
2023-02-03T04:03:50.711Z,0.09
2023-02-03T04:06:18.351Z,0.76
2023-02-03T04:08:45.392Z,0.22
2023-02-03T04:11:32.809Z,0.75
2023-02-03T04:13:59.915Z,0.02
2023-02-03T04:16:27.326Z,-0.08
2023-02-03T04:18:54.534Z,0.35
2023-02-03T04:21:22.137Z,0.53
2023-02-03T04:23:50.552Z,0.22
2023-02-03T04:26:18.220Z,0.17
2023-02-03T04:28:45.461Z,0.47
2023-02-03T04:31:13.118Z,0.16
2023-02-03T04:33:40.302Z,0.75
2023-02-03T04:36:08.266Z,0.25
2023-02-03T04:38:35.445Z,0.47
2023-02-03T04:41:02.863Z,0.50
2023-02-03T04:43:30.060Z,0.43
2023-02-03T04:46:00.334Z,0.44
2023-02-03T04:48:28.134Z,0.42
2023-02-03T04:50:55.621Z,0.79
2023-02-03T04:53:22.693Z,0.77
2023-02-03T04:55:50.426Z,0.40
2023-02-03T04:58:17.621Z,0.83
2023-02-03T05:00:45.276Z,0.21
2023-02-03T05:03:12.525Z,0.31
2023-02-03T05:05:40.303Z,0.74
2023-02-03T05:08:08.069Z,0.96
2023-02-03T05:10:35.610Z,0.17
2023-02-03T05:13:03.339Z,0.92
2023-02-03T05:15:30.808Z,0.55
2023-02-03T05:17:58.611Z,0.06
2023-02-03T05:20:26.634Z,0.53
2023-02-03T05:22:53.911Z,0.25
2023-02-03T05:25:21.419Z,0.45
2023-02-03T05:27:48.797Z,0.41
2023-02-03T05:30:17.560Z,0.31
2023-02-03T05:32:44.762Z,0.46
2023-02-03T05:35:12.403Z,0.20
2023-02-03T05:37:40.752Z,0.53
2023-02-03T05:40:35.149Z,0.22
2023-02-03T05:43:02.820Z,0.30
2023-02-03T05:45:30.505Z,0.12
2023-02-03T05:47:57.585Z,-0.08
2023-02-03T05:50:27.234Z,-0.13
2023-02-03T05:53:08.459Z,-0.04
2023-02-03T05:55:37.884Z,0.08
2023-02-03T05:58:05.711Z,0.36
2023-02-03T06:00:33.458Z,0.59
2023-02-03T06:03:03.196Z,0.23
2023-02-03T06:05:34.172Z,-0.09
2023-02-03T06:08:02.203Z,0.31
2023-02-03T06:10:30.224Z,0.13
2023-02-03T06:12:57.509Z,-0.08
2023-02-03T06:15:24.932Z,0.03
2023-02-03T06:17:52.019Z,0.05
2023-02-03T06:20:20.736Z,0.17
2023-02-03T06:22:48.099Z,0.20
2023-02-03T06:25:15.662Z,0.24
2023-02-03T06:27:42.981Z,0.40
2023-02-03T06:30:11.574Z,0.19
2023-02-03T06:32:39.322Z,0.32
2023-02-03T06:35:07.714Z,0.71
2023-02-03T06:37:35.755Z,0.37
2023-02-03T06:40:05.118Z,0.34
2023-02-03T06:42:32.975Z,0.52
2023-02-03T06:45:00.565Z,0.41
2023-02-03T06:47:28.053Z,0.28
2023-02-03T06:49:56.893Z,0.69
2023-02-03T06:52:24.880Z,0.80
2023-02-03T06:54:53.299Z,0.38
2023-02-03T06:57:21.653Z,0.31
2023-02-03T06:59:51.155Z,0.58
2023-02-03T07:02:19.217Z,0.54
2023-02-03T07:04:46.855Z,0.60
2023-02-03T07:07:14.283Z,0.75
2023-02-03T07:09:42.127Z,0.52
2023-02-03T07:12:10.458Z,0.79
2023-02-03T07:14:39.444Z,0.53
2023-02-03T07:17:07.294Z,0.71
2023-02-03T07:19:34.663Z,0.58
2023-02-03T07:22:01.890Z,0.60
2023-02-03T07:24:29.205Z,0.85
2023-02-03T07:26:56.244Z,0.42
2023-02-03T07:29:23.708Z,0.50
2023-02-03T07:31:50.875Z,0.82
2023-02-03T07:34:18.386Z,0.44
2023-02-03T07:36:45.544Z,0.83
2023-02-03T07:39:13.078Z,0.81
2023-02-03T07:41:40.223Z,0.64
2023-02-03T07:44:09.399Z,0.47
2023-02-03T07:46:39.886Z,1.10
2023-02-03T07:49:08.108Z,0.85
2023-02-03T07:51:35.175Z,0.66
2023-02-03T07:54:02.687Z,1.43
2023-02-03T07:56:30.727Z,1.17
2023-02-03T07:58:59.566Z,1.34
2023-02-03T08:01:26.788Z,1.04
2023-02-03T08:03:55.214Z,0.95
2023-02-03T08:06:22.964Z,1.34
2023-02-03T08:08:50.485Z,1.53
2023-02-03T08:11:17.782Z,1.34
2023-02-03T08:13:45.176Z,1.43
2023-02-03T08:16:12.383Z,1.46
2023-02-03T08:18:39.877Z,1.67
2023-02-03T08:21:06.990Z,1.35
2023-02-03T08:23:34.384Z,1.14
2023-02-03T08:26:01.441Z,1.50
2023-02-03T08:28:28.882Z,1.59
2023-02-03T08:30:57.676Z,1.27
2023-02-03T08:33:25.272Z,1.38
2023-02-03T08:35:52.430Z,1.41
2023-02-03T08:38:21.893Z,1.72
2023-02-03T08:40:49.255Z,1.59
2023-02-03T08:43:16.819Z,1.25
2023-02-03T08:45:44.133Z,1.58
2023-02-03T08:48:11.733Z,1.63
2023-02-03T08:50:42.863Z,1.50
2023-02-03T08:53:11.381Z,1.36
2023-02-03T08:55:43.915Z,1.59
2023-02-03T08:58:11.338Z,1.70
2023-02-03T09:00:38.688Z,1.71
2023-02-03T09:03:06.103Z,1.56
2023-02-03T09:05:33.986Z,1.95
2023-02-03T09:08:01.657Z,1.51
2023-02-03T09:10:29.410Z,1.92
2023-02-03T09:12:57.154Z,1.80
2023-02-03T09:15:24.206Z,1.16
2023-02-03T09:17:51.687Z,1.32
2023-02-03T09:20:19.405Z,1.78
2023-02-03T09:22:46.874Z,1.48
2023-02-03T09:25:16.317Z,1.17
2023-02-03T09:27:43.834Z,1.74
2023-02-03T09:30:11.773Z,1.90
2023-02-03T09:32:39.225Z,1.78
2023-02-03T09:35:06.717Z,1.63
2023-02-03T09:37:34.182Z,1.52
2023-02-03T09:40:01.294Z,1.25
2023-02-03T09:42:54.918Z,1.64
2023-02-03T09:45:28.078Z,1.36
2023-02-03T09:48:03.885Z,1.46
2023-02-03T09:50:35.228Z,1.48
2023-02-03T09:53:27.077Z,1.68
2023-02-03T09:55:55.303Z,1.43
2023-02-03T09:58:23.057Z,1.35
2023-02-03T10:01:01.324Z,1.73
2023-02-03T10:03:54.572Z,1.64
2023-02-03T10:06:39.280Z,1.60
2023-02-03T10:09:18.900Z,1.38
2023-02-03T10:12:04.934Z,1.53
2023-02-03T10:14:44.477Z,1.56
2023-02-03T10:17:23.613Z,1.50
2023-02-03T10:20:09.297Z,1.79
2023-02-03T10:22:48.833Z,1.83
2023-02-03T10:25:16.094Z,1.41
2023-02-03T10:27:44.247Z,1.74
2023-02-03T10:30:22.657Z,1.64
2023-02-03T10:33:11.373Z,1.62
2023-02-03T10:35:52.863Z,1.35
2023-02-03T10:38:43.880Z,1.70
2023-02-03T10:41:11.714Z,1.40
2023-02-03T10:43:48.833Z,1.27
2023-02-03T10:46:22.059Z,1.61
2023-02-03T10:48:49.651Z,1.65
2023-02-03T10:51:23.451Z,1.45
2023-02-03T10:53:54.468Z,1.27
2023-02-03T10:56:29.525Z,1.67
2023-02-03T10:58:59.385Z,1.86
2023-02-03T11:01:38.888Z,1.61
2023-02-03T11:04:09.940Z,1.90
2023-02-03T11:06:55.836Z,1.90
2023-02-03T11:09:34.906Z,2.05
2023-02-03T11:12:22.690Z,2.04
2023-02-03T11:14:53.711Z,1.52
2023-02-03T11:17:24.445Z,2.03
2023-02-03T11:19:59.157Z,1.98
2023-02-03T11:22:41.263Z,1.84
2023-02-03T11:25:38.195Z,1.86
2023-02-03T11:28:07.975Z,1.72
2023-02-03T11:30:35.168Z,2.12
2023-02-03T11:33:03.183Z,2.32
2023-02-03T11:35:31.987Z,1.94
2023-02-03T11:38:01.654Z,1.92
2023-02-03T11:40:29.451Z,1.70
2023-02-03T11:42:57.233Z,2.03
2023-02-03T11:45:26.961Z,1.91
2023-02-03T11:48:16.276Z,1.77
2023-02-03T11:51:03.341Z,1.99
2023-02-03T11:53:56.149Z,1.69
2023-02-03T11:56:42.452Z,1.94
2023-02-03T11:59:25.707Z,1.74
2023-02-03T12:01:58.843Z,1.44
2023-02-03T12:05:00.948Z,1.46
2023-02-03T12:08:04.780Z,1.75
2023-02-03T12:10:38.252Z,1.72
2023-02-03T12:13:17.560Z,1.67
2023-02-03T12:16:03.524Z,1.70
2023-02-03T12:18:47.424Z,2.02
2023-02-03T12:21:44.700Z,1.98
2023-02-03T12:24:33.027Z,1.81
2023-02-03T12:27:32.727Z,1.79
2023-02-03T12:30:11.955Z,1.89
2023-02-03T12:32:48.439Z,2.02
2023-02-03T12:35:15.768Z,2.11
2023-02-03T12:38:12.526Z,2.08
2023-02-03T12:40:49.265Z,2.00
2023-02-03T12:43:28.035Z,1.62
2023-02-03T12:46:04.672Z,2.05
2023-02-03T12:48:52.144Z,1.75
2023-02-03T12:51:31.042Z,1.95
2023-02-03T12:54:05.282Z,1.76
2023-02-03T12:56:40.473Z,1.52
2023-02-03T12:59:22.849Z,1.94
2023-02-03T13:01:56.804Z,1.63
2023-02-03T13:04:49.930Z,1.84
2023-02-03T13:07:26.044Z,1.89
2023-02-03T13:10:04.039Z,1.92
2023-02-03T13:12:37.256Z,2.04
2023-02-03T13:15:28.652Z,1.83
2023-02-03T13:18:11.138Z,1.92
2023-02-03T13:20:39.126Z,2.05
2023-02-03T13:23:12.696Z,2.09
2023-02-03T13:25:43.135Z,2.06
2023-02-03T13:28:38.091Z,2.08
2023-02-03T13:31:39.656Z,1.90
2023-02-03T13:34:21.903Z,3.13
2023-02-03T13:37:06.291Z,2.32
2023-02-03T13:40:07.071Z,2.12
2023-02-03T13:42:41.086Z,2.20
2023-02-03T13:45:23.453Z,2.41
2023-02-03T13:47:55.641Z,2.30
2023-02-03T13:50:27.776Z,2.53
2023-02-03T13:52:58.582Z,2.25
2023-02-03T13:55:39.684Z,2.35
2023-02-03T13:58:20.107Z,2.11
2023-02-03T14:00:47.529Z,2.73
2023-02-03T14:03:39.835Z,2.05
2023-02-03T14:06:35.988Z,2.61
2023-02-03T14:09:35.490Z,2.06
2023-02-03T14:12:33.112Z,2.49
2023-02-03T14:15:15.816Z,2.32
2023-02-03T14:17:43.008Z,2.76
2023-02-03T14:20:27.141Z,2.77
2023-02-03T14:22:54.504Z,2.92
2023-02-03T14:25:22.504Z,2.62
2023-02-03T14:28:09.818Z,2.52
2023-02-03T14:31:07.494Z,2.56
2023-02-03T14:33:57.904Z,2.46
2023-02-03T14:36:31.718Z,2.33
2023-02-03T14:39:21.257Z,2.56
2023-02-03T14:42:01.919Z,2.49
2023-02-03T14:44:35.355Z,2.39
2023-02-03T14:47:31.541Z,2.34
2023-02-03T14:50:09.013Z,2.70
2023-02-03T14:53:24.139Z,2.37
2023-02-03T14:56:01.167Z,2.61
2023-02-03T14:58:50.169Z,2.31
2023-02-03T15:01:29.281Z,2.54
2023-02-03T15:04:12.553Z,2.40
2023-02-03T15:06:41.538Z,2.58
2023-02-03T15:09:43.233Z,2.48
2023-02-03T15:12:19.013Z,2.63
2023-02-03T15:14:46.585Z,2.46
2023-02-03T15:17:22.105Z,2.46
2023-02-03T15:19:50.312Z,2.35
2023-02-03T15:22:22.554Z,2.41
2023-02-03T15:24:58.894Z,2.19
2023-02-03T15:27:29.900Z,2.75
2023-02-03T15:29:59.376Z,2.44
2023-02-03T15:32:41.014Z,2.45
2023-02-03T15:35:19.131Z,2.42
2023-02-03T15:37:53.758Z,2.50
2023-02-03T15:40:24.356Z,2.49
2023-02-03T15:43:04.544Z,2.42
2023-02-03T15:45:36.034Z,2.38
2023-02-03T15:48:19.365Z,2.50
2023-02-03T15:51:14.283Z,2.44
2023-02-03T15:54:03.802Z,2.41
2023-02-03T15:56:41.347Z,2.24
2023-02-03T15:59:26.168Z,2.65
2023-02-03T16:01:54.436Z,2.47
2023-02-03T16:04:23.351Z,2.26
2023-02-03T16:06:53.762Z,2.42
2023-02-03T16:09:41.757Z,2.20
2023-02-03T16:12:29.794Z,2.79
2023-02-03T16:15:00.222Z,2.63
2023-02-03T16:17:34.253Z,2.75
2023-02-03T16:20:21.536Z,2.72
2023-02-03T16:23:19.271Z,2.69
2023-02-03T16:26:15.485Z,2.50
2023-02-03T16:29:01.765Z,2.27
2023-02-03T16:31:48.154Z,2.10
2023-02-03T16:34:38.043Z,2.06
2023-02-03T16:37:47.634Z,2.23
2023-02-03T16:40:39.870Z,2.54
2023-02-03T16:43:31.423Z,2.45
2023-02-03T16:46:19.790Z,2.27
2023-02-03T16:49:06.107Z,2.20
2023-02-03T16:51:40.181Z,2.40
2023-02-03T16:54:11.450Z,2.00
2023-02-03T16:56:39.433Z,1.91
2023-02-03T16:59:07.238Z,2.07
2023-02-03T17:01:36.159Z,2.17
2023-02-03T17:04:03.948Z,2.34
2023-02-03T17:06:33.528Z,2.46
2023-02-03T17:09:01.207Z,2.21
2023-02-03T17:11:29.094Z,2.63
2023-02-03T17:13:57.162Z,2.30
2023-02-03T17:16:26.991Z,2.44
2023-02-03T17:18:54.812Z,2.13
2023-02-03T17:21:29.073Z,2.57
2023-02-03T17:23:58.467Z,2.30
2023-02-03T17:26:26.346Z,2.30
2023-02-03T17:28:54.231Z,2.18
2023-02-03T17:31:22.612Z,2.43
2023-02-03T17:33:52.251Z,2.51
2023-02-03T17:36:24.214Z,2.12
2023-02-03T17:55:32.322Z,2.06
2023-02-03T17:58:00.911Z,2.23
2023-02-03T18:00:32.686Z,2.26
2023-02-03T18:03:01.642Z,2.47
2023-02-03T18:05:29.651Z,2.11
2023-02-03T18:07:59.160Z,1.91
2023-02-03T18:10:31.799Z,2.03
2023-02-03T18:13:00.527Z,2.09
2023-02-03T18:15:28.683Z,1.93
2023-02-03T18:17:57.509Z,2.30
2023-02-03T18:20:25.587Z,1.99
2023-02-03T18:22:54.211Z,2.17
2023-02-03T18:25:22.299Z,2.11
2023-02-03T18:27:52.397Z,2.08
2023-02-03T18:30:21.948Z,2.14
2023-02-03T18:32:53.520Z,2.39
2023-02-03T18:35:21.033Z,2.07
2023-02-03T18:37:48.788Z,2.22
2023-02-03T18:40:16.471Z,2.14
2023-02-03T18:42:44.157Z,2.28
2023-02-03T18:45:12.018Z,2.05
2023-02-03T18:47:40.308Z,2.30
2023-02-03T18:50:08.888Z,2.05
2023-02-03T18:52:38.774Z,2.07
2023-02-03T18:55:07.890Z,2.07
2023-02-03T18:57:40.101Z,2.24
2023-02-03T19:00:10.416Z,1.93
2023-02-03T19:02:39.287Z,2.19
2023-02-03T19:05:09.008Z,1.95
2023-02-03T19:07:37.502Z,2.06
2023-02-03T19:10:05.764Z,2.31
2023-02-03T19:12:35.342Z,2.32
2023-02-03T19:15:03.324Z,2.15
2023-02-03T19:17:31.594Z,1.83
2023-02-03T19:19:59.449Z,1.90
2023-02-03T19:22:28.036Z,1.86
2023-02-03T19:24:56.647Z,1.92
2023-02-03T19:27:25.834Z,1.76
2023-02-03T19:29:53.305Z,1.80
2023-02-03T19:32:21.025Z,1.86
2023-02-03T19:34:48.482Z,1.86
2023-02-03T19:37:16.197Z,1.93
2023-02-03T19:39:45.145Z,2.14
2023-02-03T19:42:12.854Z,1.95
2023-02-03T19:44:40.268Z,2.00
2023-02-03T19:47:08.160Z,1.71
2023-02-03T19:49:35.502Z,1.92
2023-02-03T19:52:03.946Z,1.48
2023-02-03T19:54:31.365Z,1.69
2023-02-03T19:56:59.099Z,1.74
2023-02-03T19:59:26.806Z,2.14
2023-02-03T20:01:55.399Z,1.85
2023-02-03T20:04:24.663Z,1.80
2023-02-03T20:06:52.428Z,1.89
2023-02-03T20:09:19.716Z,1.87
2023-02-03T20:11:48.923Z,1.64
2023-02-03T20:14:16.879Z,1.80
2023-02-03T20:16:45.031Z,1.83
2023-02-03T20:19:12.845Z,1.87
2023-02-03T20:21:40.675Z,1.89
2023-02-03T20:24:07.979Z,1.74
2023-02-03T20:26:36.210Z,1.69
2023-02-03T20:29:05.164Z,1.55
2023-02-03T20:31:33.582Z,1.75
2023-02-03T20:34:01.454Z,1.32
2023-02-03T20:36:29.868Z,1.37
2023-02-03T20:38:57.956Z,1.36
2023-02-03T20:41:25.888Z,1.82
2023-02-03T20:43:54.884Z,1.64
2023-02-03T20:46:23.538Z,1.38
2023-02-03T20:48:51.894Z,1.59
2023-02-03T20:51:22.431Z,1.30
2023-02-03T20:53:50.285Z,1.64
2023-02-03T20:56:22.143Z,1.56
2023-02-03T20:58:49.753Z,1.19
2023-02-03T21:01:20.856Z,1.25
2023-02-03T21:04:07.774Z,1.38
2023-02-03T21:06:36.811Z,1.55
2023-02-03T21:09:21.631Z,1.62
2023-02-03T21:11:53.211Z,1.49
2023-02-03T21:14:29.395Z,1.60
2023-02-03T21:16:57.796Z,1.61
2023-02-03T21:19:31.737Z,1.25
2023-02-03T21:22:12.722Z,1.65
2023-02-03T21:24:50.734Z,1.69
2023-02-03T21:27:25.007Z,1.32
2023-02-03T21:29:57.654Z,1.30
2023-02-03T21:32:34.750Z,1.22
2023-02-03T21:35:02.393Z,1.76
2023-02-03T21:37:41.898Z,2.35
2023-02-03T21:40:24.591Z,1.77
2023-02-03T21:42:54.505Z,2.07
2023-02-03T21:45:24.527Z,1.45
2023-02-03T21:47:53.645Z,1.70
2023-02-03T21:50:41.714Z,1.53
2023-02-03T21:53:13.655Z,2.01
2023-02-03T21:55:42.798Z,1.40
2023-02-03T21:58:23.878Z,1.72
2023-02-03T22:00:54.531Z,1.58
2023-02-03T22:03:28.345Z,1.68
2023-02-03T22:06:24.136Z,1.77
2023-02-03T22:08:55.024Z,1.61
2023-02-03T22:11:24.904Z,1.69
2023-02-03T22:13:52.599Z,1.65
2023-02-03T22:16:20.214Z,1.79
2023-02-03T22:18:49.505Z,1.76
2023-02-03T22:21:18.211Z,1.77
2023-02-03T22:23:47.082Z,1.67
2023-02-03T22:26:16.291Z,1.99
2023-02-03T22:28:44.996Z,2.02
2023-02-03T22:31:13.137Z,2.04
2023-02-03T22:33:41.983Z,2.09
2023-02-03T22:36:10.655Z,2.09
2023-02-03T22:38:39.722Z,1.85
2023-02-03T22:41:08.072Z,1.89
2023-02-03T22:43:35.781Z,2.00
2023-02-03T22:46:05.023Z,1.73
2023-02-03T22:48:33.231Z,1.90
2023-02-03T22:51:01.546Z,1.84
2023-02-03T22:53:30.251Z,1.89
2023-02-03T22:55:58.023Z,1.87
2023-02-03T22:58:25.959Z,1.81
2023-02-03T23:00:53.474Z,1.84
2023-02-03T23:03:21.241Z,1.92
2023-02-03T23:05:48.865Z,1.70
2023-02-03T23:08:16.946Z,1.86
2023-02-03T23:10:44.357Z,1.82
2023-02-03T23:13:12.112Z,1.88
2023-02-03T23:15:39.635Z,1.79
2023-02-03T23:18:07.252Z,1.83
2023-02-03T23:20:34.476Z,1.61
2023-02-03T23:23:02.156Z,1.72
2023-02-03T23:25:29.537Z,1.73
2023-02-03T23:27:57.323Z,1.55
2023-02-03T23:30:24.566Z,1.65
2023-02-03T23:32:52.128Z,1.71
2023-02-03T23:35:37.844Z,1.53
2023-02-03T23:38:05.497Z,1.54
2023-02-03T23:40:33.127Z,1.74
2023-02-03T23:43:01.013Z,1.72
2023-02-03T23:45:28.605Z,2.10
2023-02-03T23:47:56.230Z,1.75
2023-02-03T23:50:23.984Z,1.96
2023-02-03T23:52:51.622Z,1.76
2023-02-03T23:55:21.079Z,1.83
2023-02-03T23:57:48.517Z,1.82
